Time;durP1;ratioP1;P1;durP2;ratioP2;P2;SDS_P1;SDS_P2;PMS_P1;PMS_P2;Temp;Humidity;BMP_temperature;BMP_pressure;BME280_temperature;BME280_humidity;BME280_pressure;Samples;Min_cycle;Max_cycle;Signal;HPM_P1;HPM_P2
2023/12/03 00:00:09;;;;;;;16.42;7.07;;;;;;;;;;5025684;28;20041;-87
2023/12/03 00:02:39;;;;;;;17.23;7.43;;;;;;;;;;5024332;28;20443;-87
2023/12/03 00:05:05;;;;;;;16.45;7.07;;;;;;;;;;5005116;28;20076;-87
2023/12/03 00:07:32;;;;;;;13.30;7.47;;;;;;;;;;5028704;28;20128;-87
2023/12/03 00:09:59;;;;;;;15.43;7.28;;;;;;;;;;5025549;28;20033;-87
2023/12/03 00:12:25;;;;;;;16.75;6.13;;;;;;;;;;5023350;28;20536;-87
2023/12/03 00:14:51;;;;;;;13.13;6.90;;;;;;;;;;5025626;28;20068;-87
2023/12/03 00:17:17;;;;;;;13.90;6.63;;;;;;;;;;5013839;28;20443;-87
2023/12/03 00:19:43;;;;;;;18.38;9.48;;;;;;;;;;5028440;28;20074;-87
2023/12/03 00:22:09;;;;;;;17.33;7.20;;;;;;;;;;5008645;28;20461;-87
2023/12/03 00:24:35;;;;;;;11.98;6.88;;;;;;;;;;5025230;28;20403;-87
2023/12/03 00:27:01;;;;;;;15.18;7.20;;;;;;;;;;5015415;28;20120;-87
2023/12/03 00:29:27;;;;;;;16.63;7.05;;;;;;;;;;5011033;28;20622;-87
2023/12/03 00:31:53;;;;;;;16.45;7.07;;;;;;;;;;5008562;28;20111;-87
2023/12/03 00:34:20;;;;;;;13.27;7.75;;;;;;;;;;5032976;28;20033;-87
2023/12/03 00:36:46;;;;;;;15.77;7.50;;;;;;;;;;5025141;28;20033;-87
2023/12/03 00:39:12;;;;;;;12.70;6.00;;;;;;;;;;5025810;28;20041;-87
2023/12/03 00:41:38;;;;;;;11.52;6.07;;;;;;;;;;5009760;28;20389;-87
2023/12/03 00:44:04;;;;;;;13.35;7.68;;;;;;;;;;5019834;28;20071;-87
2023/12/03 00:46:30;;;;;;;10.70;5.47;;;;;;;;;;5024983;28;20049;-87
2023/12/03 00:48:56;;;;;;;14.32;7.90;;;;;;;;;;5021862;28;20050;-87
2023/12/03 00:51:23;;;;;;;11.05;6.15;;;;;;;;;;5024842;28;20535;-87
2023/12/03 00:53:49;;;;;;;13.80;7.07;;;;;;;;;;5022832;28;20045;-87
2023/12/03 00:56:16;;;;;;;14.52;6.88;;;;;;;;;;5025079;28;20083;-87
2023/12/03 00:58:42;;;;;;;15.95;7.03;;;;;;;;;;5004699;28;20033;-87
2023/12/03 01:01:08;;;;;;;20.55;9.77;;;;;;;;;;5024233;28;20045;-87
2023/12/03 01:03:34;;;;;;;16.77;7.82;;;;;;;;;;5007779;28;20045;-87
2023/12/03 01:06:00;;;;;;;14.82;7.45;;;;;;;;;;5022012;28;20116;-87
2023/12/03 01:08:26;;;;;;;14.60;7.38;;;;;;;;;;5023701;28;20115;-87
2023/12/03 01:10:52;;;;;;;15.60;7.60;;;;;;;;;;5007678;28;20121;-87
2023/12/03 01:13:19;;;;;;;12.82;6.55;;;;;;;;;;5023874;28;20041;-87
2023/12/03 01:15:45;;;;;;;14.55;6.25;;;;;;;;;;5006010;28;20049;-88
2023/12/03 01:18:11;;;;;;;13.88;6.32;;;;;;;;;;5007242;28;20273;-87
2023/12/03 01:20:38;;;;;;;11.00;6.30;;;;;;;;;;5021321;28;20546;-87
2023/12/03 01:23:04;;;;;;;12.48;6.68;;;;;;;;;;5019165;28;20568;-87
2023/12/03 01:25:30;;;;;;;15.73;7.15;;;;;;;;;;5009124;28;20044;-87
2023/12/03 01:27:56;;;;;;;14.13;6.78;;;;;;;;;;5004884;28;20446;-87
2023/12/03 01:30:22;;;;;;;10.18;5.85;;;;;;;;;;5008734;28;20535;-87
2023/12/03 01:32:48;;;;;;;14.63;6.25;;;;;;;;;;5025849;28;20029;-87
2023/12/03 01:35:14;;;;;;;19.48;10.10;;;;;;;;;;5025009;28;20455;-87
2023/12/03 01:37:40;;;;;;;17.08;8.15;;;;;;;;;;5010324;28;20160;-87
2023/12/03 01:40:07;;;;;;;15.80;8.45;;;;;;;;;;5023461;28;20075;-86
2023/12/03 01:42:34;;;;;;;12.63;6.97;;;;;;;;;;5024346;28;20037;-87
2023/12/03 01:45:00;;;;;;;11.57;5.43;;;;;;;;;;5025527;28;20118;-87
2023/12/03 01:47:27;;;;;;;14.13;6.40;;;;;;;;;;5028921;28;20052;-86
2023/12/03 01:49:53;;;;;;;12.38;6.22;;;;;;;;;;5024142;28;20044;-87
2023/12/03 01:52:19;;;;;;;16.70;7.75;;;;;;;;;;5007426;28;20033;-87
2023/12/03 01:54:45;;;;;;;15.85;6.88;;;;;;;;;;5013351;28;20041;-87
2023/12/03 01:57:12;;;;;;;16.50;7.28;;;;;;;;;;5010636;28;20057;-87
2023/12/03 01:59:38;;;;;;;15.52;7.78;;;;;;;;;;5009241;28;20032;-87
2023/12/03 02:02:04;;;;;;;13.35;6.47;;;;;;;;;;5023749;28;20044;-87
2023/12/03 02:04:30;;;;;;;16.95;8.02;;;;;;;;;;5026564;28;20045;-87
2023/12/03 02:06:56;;;;;;;14.68;7.07;;;;;;;;;;5011574;28;20045;-87
2023/12/03 02:09:22;;;;;;;15.07;7.13;;;;;;;;;;5015688;28;20049;-87
2023/12/03 02:11:48;;;;;;;14.02;6.35;;;;;;;;;;5019868;28;20071;-87
2023/12/03 02:14:14;;;;;;;20.55;10.40;;;;;;;;;;5017043;28;20045;-87
2023/12/03 02:16:47;;;;;;;16.58;7.70;;;;;;;;;;5033320;28;20041;-87
2023/12/03 02:19:16;;;;;;;14.43;7.78;;;;;;;;;;5012522;28;20123;-87
2023/12/03 02:21:42;;;;;;;15.05;7.85;;;;;;;;;;5011747;28;20044;-87
2023/12/03 02:24:08;;;;;;;23.48;9.50;;;;;;;;;;5024738;28;20045;-87
2023/12/03 02:26:34;;;;;;;20.00;7.93;;;;;;;;;;5025744;28;20411;-87
2023/12/03 02:29:00;;;;;;;24.20;8.70;;;;;;;;;;5027428;28;20047;-87
2023/12/03 02:31:28;;;;;;;14.00;7.20;;;;;;;;;;5011782;28;20048;-87
2023/12/03 02:33:58;;;;;;;17.27;8.63;;;;;;;;;;5013752;28;20092;-87
2023/12/03 02:36:24;;;;;;;18.17;8.70;;;;;;;;;;5031405;28;20076;-87
2023/12/03 02:38:50;;;;;;;19.40;9.80;;;;;;;;;;5025245;28;20061;-87
2023/12/03 02:41:16;;;;;;;26.58;11.55;;;;;;;;;;5008306;28;20056;-87
2023/12/03 02:43:42;;;;;;;14.15;7.32;;;;;;;;;;5030127;28;20448;-87
2023/12/03 02:46:09;;;;;;;16.92;8.57;;;;;;;;;;5027349;28;20131;-87
2023/12/03 02:48:35;;;;;;;17.95;9.10;;;;;;;;;;5013555;28;20057;-87
2023/12/03 02:51:01;;;;;;;15.68;7.75;;;;;;;;;;5005779;28;20041;-87
2023/12/03 02:53:27;;;;;;;15.52;7.68;;;;;;;;;;5025757;28;20033;-87
2023/12/03 02:55:53;;;;;;;16.92;8.05;;;;;;;;;;5022293;28;20037;-87
2023/12/03 02:58:19;;;;;;;15.07;7.47;;;;;;;;;;5026089;28;20060;-87
2023/12/03 03:00:45;;;;;;;13.85;6.97;;;;;;;;;;5027049;28;20123;-87
2023/12/03 03:03:11;;;;;;;17.63;7.10;;;;;;;;;;5024583;28;20465;-87
2023/12/03 03:05:37;;;;;;;14.05;6.65;;;;;;;;;;5009910;28;20041;-87
2023/12/03 03:08:03;;;;;;;21.38;9.48;;;;;;;;;;5008653;28;20024;-87
2023/12/03 03:10:29;;;;;;;15.73;9.13;;;;;;;;;;5026540;28;20041;-87
2023/12/03 03:12:55;;;;;;;14.20;6.93;;;;;;;;;;5009194;28;20078;-87
2023/12/03 03:15:21;;;;;;;19.52;8.90;;;;;;;;;;5022924;28;20389;-85
2023/12/03 03:17:47;;;;;;;21.58;10.77;;;;;;;;;;5011866;28;20052;-85
2023/12/03 03:20:13;;;;;;;17.55;7.32;;;;;;;;;;5012103;28;20029;-85
2023/12/03 03:22:39;;;;;;;16.38;7.32;;;;;;;;;;5023153;28;20041;-86
2023/12/03 03:25:05;;;;;;;24.20;10.70;;;;;;;;;;5008051;28;20036;-85
2023/12/03 03:27:31;;;;;;;11.88;6.05;;;;;;;;;;5011009;28;20040;-86
2023/12/03 03:29:57;;;;;;;26.90;10.32;;;;;;;;;;5007261;28;20040;-85
2023/12/03 03:32:23;;;;;;;13.77;7.57;;;;;;;;;;5023511;28;20045;-86
2023/12/03 03:34:49;;;;;;;23.00;8.85;;;;;;;;;;5016602;28;20122;-85
2023/12/03 03:37:15;;;;;;;15.43;7.55;;;;;;;;;;5027852;28;20091;-86
2023/12/03 03:39:41;;;;;;;14.27;6.60;;;;;;;;;;5028940;28;20060;-86
2023/12/03 03:42:07;;;;;;;22.75;9.90;;;;;;;;;;5008669;28;20033;-85
2023/12/03 03:44:33;;;;;;;19.83;8.98;;;;;;;;;;5008988;28;20036;-85
2023/12/03 03:46:59;;;;;;;24.33;9.48;;;;;;;;;;5011645;28;20037;-86
2023/12/03 03:49:25;;;;;;;18.48;9.35;;;;;;;;;;5021920;28;20492;-85
2023/12/03 03:51:51;;;;;;;23.98;8.93;;;;;;;;;;5023409;28;20042;-86
2023/12/03 03:54:17;;;;;;;14.00;6.22;;;;;;;;;;5023924;28;20048;-86
2023/12/03 03:56:47;;;;;;;18.27;9.00;;;;;;;;;;5025374;28;20044;-86
2023/12/03 03:59:14;;;;;;;13.38;5.22;;;;;;;;;;5024229;28;20029;-86
2023/12/03 04:01:43;;;;;;;15.68;7.25;;;;;;;;;;5029248;28;20042;-86
2023/12/03 04:04:10;;;;;;;22.63;8.18;;;;;;;;;;5023226;28;20045;-86
2023/12/03 04:06:44;;;;;;;14.25;5.97;;;;;;;;;;5012625;28;20422;-86
2023/12/03 04:09:10;;;;;;;15.20;7.20;;;;;;;;;;5020358;28;20464;-85
2023/12/03 04:11:43;;;;;;;12.82;5.68;;;;;;;;;;5009262;28;20041;-85
2023/12/03 04:14:12;;;;;;;12.05;5.28;;;;;;;;;;5024667;28;20090;-85
2023/12/03 04:16:39;;;;;;;12.25;6.43;;;;;;;;;;5025259;28;20041;-86
2023/12/03 04:19:06;;;;;;;15.35;5.72;;;;;;;;;;5007348;28;20068;-86
2023/12/03 04:21:32;;;;;;;16.55;6.93;;;;;;;;;;5007393;28;20041;-86
2023/12/03 04:23:58;;;;;;;16.67;5.93;;;;;;;;;;5022848;28;20041;-86
2023/12/03 04:26:25;;;;;;;20.27;7.40;;;;;;;;;;5024215;28;20119;-85
2023/12/03 04:28:52;;;;;;;13.75;5.95;;;;;;;;;;5005840;28;20037;-86
2023/12/03 04:31:19;;;;;;;18.50;6.90;;;;;;;;;;5006744;28;20040;-86
2023/12/03 04:33:45;;;;;;;20.35;7.45;;;;;;;;;;5024886;28;20041;-85
2023/12/03 04:36:12;;;;;;;15.30;6.53;;;;;;;;;;5022123;28;20041;-86
2023/12/03 04:38:38;;;;;;;13.20;5.68;;;;;;;;;;5021506;28;20029;-86
2023/12/03 04:41:04;;;;;;;17.05;5.88;;;;;;;;;;5022801;28;20037;-86
2023/12/03 04:43:30;;;;;;;16.52;6.78;;;;;;;;;;5023683;28;20095;-86
2023/12/03 04:45:56;;;;;;;18.75;6.28;;;;;;;;;;5025907;28;20037;-86
2023/12/03 04:48:22;;;;;;;19.77;7.68;;;;;;;;;;5023966;28;20471;-86
2023/12/03 04:50:48;;;;;;;16.00;6.07;;;;;;;;;;5028287;28;20041;-85
2023/12/03 04:53:14;;;;;;;15.30;6.40;;;;;;;;;;5010845;28;20041;-85
2023/12/03 04:55:40;;;;;;;15.13;6.47;;;;;;;;;;5027374;28;20040;-86
2023/12/03 04:58:06;;;;;;;18.70;8.32;;;;;;;;;;5028916;28;20037;-85
2023/12/03 05:00:32;;;;;;;19.40;6.72;;;;;;;;;;5037188;28;20062;-85
2023/12/03 05:02:58;;;;;;;18.88;6.85;;;;;;;;;;5013745;28;20034;-86
2023/12/03 05:05:24;;;;;;;15.35;6.10;;;;;;;;;;5009556;28;20041;-86
2023/12/03 05:07:50;;;;;;;15.20;5.95;;;;;;;;;;5010185;28;20506;-86
2023/12/03 05:10:16;;;;;;;16.30;5.63;;;;;;;;;;5007043;28;20037;-86
2023/12/03 05:12:42;;;;;;;20.75;7.40;;;;;;;;;;5024713;28;20048;-86
2023/12/03 05:15:09;;;;;;;22.73;7.43;;;;;;;;;;5025482;28;20172;-86
2023/12/03 05:17:35;;;;;;;11.77;4.70;;;;;;;;;;5020425;28;20037;-86
2023/12/03 05:20:01;;;;;;;16.63;6.10;;;;;;;;;;5007686;28;20033;-86
2023/12/03 05:22:26;;;;;;;14.40;5.75;;;;;;;;;;5024480;28;20045;-85
2023/12/03 05:24:52;;;;;;;13.68;5.43;;;;;;;;;;5006949;28;20048;-86
2023/12/03 05:27:18;;;;;;;16.45;6.88;;;;;;;;;;5023562;28;20120;-86
2023/12/03 05:29:45;;;;;;;14.50;5.78;;;;;;;;;;5010903;28;20041;-85
2023/12/03 05:32:11;;;;;;;16.02;6.50;;;;;;;;;;5033446;28;20039;-86
2023/12/03 05:34:37;;;;;;;18.35;6.13;;;;;;;;;;5030329;28;20132;-86
2023/12/03 05:37:04;;;;;;;12.95;5.35;;;;;;;;;;5011953;28;20065;-86
2023/12/03 05:39:30;;;;;;;15.32;6.35;;;;;;;;;;5027693;28;20048;-86
2023/12/03 05:41:56;;;;;;;16.85;6.55;;;;;;;;;;5011056;28;20333;-86
2023/12/03 05:44:22;;;;;;;24.05;8.50;;;;;;;;;;5011217;28;20048;-86
2023/12/03 05:46:48;;;;;;;10.60;4.10;;;;;;;;;;5011677;28;20048;-86
2023/12/03 05:49:14;;;;;;;17.08;6.18;;;;;;;;;;5009226;28;20052;-86
2023/12/03 05:51:45;;;;;;;13.65;5.32;;;;;;;;;;5022375;28;20040;-86
2023/12/03 05:54:11;;;;;;;16.30;5.70;;;;;;;;;;5008542;28;20041;-86
2023/12/03 05:56:37;;;;;;;15.43;5.85;;;;;;;;;;5028396;28;20076;-85
2023/12/03 05:59:03;;;;;;;19.17;6.43;;;;;;;;;;5029145;28;20423;-85
2023/12/03 06:01:30;;;;;;;21.13;7.53;;;;;;;;;;5030300;28;20102;-85
2023/12/03 06:03:56;;;;;;;22.00;8.60;;;;;;;;;;5011830;28;20033;-86
2023/12/03 06:06:22;;;;;;;18.02;7.18;;;;;;;;;;5011055;28;20069;-86
2023/12/03 06:08:48;;;;;;;18.63;6.63;;;;;;;;;;5023576;28;20064;-85
2023/12/03 06:11:14;;;;;;;19.77;5.78;;;;;;;;;;5028998;28;20076;-85
2023/12/03 06:13:40;;;;;;;17.58;7.05;;;;;;;;;;5027358;28;20072;-85
2023/12/03 06:16:07;;;;;;;17.20;6.15;;;;;;;;;;5027485;28;20048;-85
2023/12/03 06:18:33;;;;;;;17.17;6.32;;;;;;;;;;5032353;28;20396;-85
2023/12/03 06:20:59;;;;;;;13.68;6.05;;;;;;;;;;5025905;28;20041;-86
2023/12/03 06:23:25;;;;;;;20.52;7.80;;;;;;;;;;5013546;28;20041;-86
2023/12/03 06:25:51;;;;;;;22.23;7.28;;;;;;;;;;5029763;28;20041;-86
2023/12/03 06:28:17;;;;;;;16.52;6.72;;;;;;;;;;5028220;28;20048;-85
2023/12/03 06:30:43;;;;;;;19.83;6.97;;;;;;;;;;5030315;28;20048;-86
2023/12/03 06:33:09;;;;;;;16.38;5.97;;;;;;;;;;5027849;28;20052;-85
2023/12/03 06:35:35;;;;;;;20.77;7.35;;;;;;;;;;5030491;28;20037;-85
2023/12/03 06:38:01;;;;;;;16.92;7.82;;;;;;;;;;5010181;28;20041;-86
2023/12/03 06:40:27;;;;;;;15.00;5.32;;;;;;;;;;5009968;28;20524;-85
2023/12/03 06:42:53;;;;;;;15.30;6.05;;;;;;;;;;5009655;28;20048;-85
2023/12/03 06:45:19;;;;;;;18.95;6.53;;;;;;;;;;5027117;28;20041;-86
2023/12/03 06:47:45;;;;;;;18.52;6.35;;;;;;;;;;5012732;28;20416;-86
2023/12/03 06:50:11;;;;;;;17.92;6.65;;;;;;;;;;5009443;28;20049;-86
2023/12/03 06:52:37;;;;;;;17.83;5.78;;;;;;;;;;5025221;28;20037;-86
2023/12/03 06:55:03;;;;;;;19.00;6.78;;;;;;;;;;5029092;28;20522;-86
2023/12/03 06:57:29;;;;;;;23.48;6.32;;;;;;;;;;5027477;28;20044;-86
2023/12/03 06:59:55;;;;;;;18.40;6.78;;;;;;;;;;5027425;28;20033;-85
2023/12/03 07:02:21;;;;;;;17.33;5.40;;;;;;;;;;5010385;28;22648;-85
2023/12/03 07:04:47;;;;;;;22.35;8.10;;;;;;;;;;5028218;28;20052;-85
2023/12/03 07:07:13;;;;;;;20.42;8.23;;;;;;;;;;5015483;28;20041;-88
2023/12/03 07:09:40;;;;;;;17.45;6.70;;;;;;;;;;5012796;28;20037;-84
2023/12/03 07:12:06;;;;;;;16.50;5.50;;;;;;;;;;5010304;28;20037;-83
2023/12/03 07:14:32;;;;;;;16.60;6.47;;;;;;;;;;5027605;28;20408;-84
2023/12/03 07:16:58;;;;;;;17.58;6.05;;;;;;;;;;5027087;28;20041;-83
2023/12/03 07:19:24;;;;;;;19.75;7.60;;;;;;;;;;5045808;28;20060;-84
2023/12/03 07:21:50;;;;;;;16.20;7.10;;;;;;;;;;5027050;28;20072;-83
2023/12/03 07:24:16;;;;;;;16.70;6.13;;;;;;;;;;5034692;28;20044;-83
2023/12/03 07:26:45;;;;;;;19.45;6.60;;;;;;;;;;5029372;28;20064;-84
2023/12/03 07:29:11;;;;;;;19.58;6.80;;;;;;;;;;5034909;28;20040;-83
2023/12/03 07:31:37;;;;;;;19.35;7.68;;;;;;;;;;5035139;28;20045;-83
2023/12/03 07:34:03;;;;;;;17.27;7.95;;;;;;;;;;5025994;28;20071;-84
2023/12/03 07:36:29;;;;;;;18.13;6.63;;;;;;;;;;5024485;28;20065;-84
2023/12/03 07:38:55;;;;;;;23.65;7.10;;;;;;;;;;5007576;28;20037;-84
2023/12/03 07:41:21;;;;;;;20.50;7.60;;;;;;;;;;5026073;28;20898;-84
2023/12/03 07:43:48;;;;;;;19.65;7.40;;;;;;;;;;5033468;28;20095;-84
2023/12/03 07:46:17;;;;;;;18.38;5.57;;;;;;;;;;5016903;28;20087;-84
2023/12/03 07:48:43;;;;;;;18.73;6.95;;;;;;;;;;5034340;28;20972;-84
2023/12/03 07:51:12;;;;;;;16.58;5.70;;;;;;;;;;5030604;28;20064;-85
2023/12/03 07:53:44;;;;;;;19.23;5.80;;;;;;;;;;5025218;28;20112;-84
2023/12/03 07:56:10;;;;;;;14.57;6.85;;;;;;;;;;5025984;28;20043;-85
2023/12/03 07:58:36;;;;;;;19.27;5.93;;;;;;;;;;5025503;28;20040;-85
2023/12/03 08:01:05;;;;;;;17.55;6.20;;;;;;;;;;5007418;28;20051;-85
2023/12/03 08:03:31;;;;;;;14.45;5.80;;;;;;;;;;5009740;28;20041;-85
2023/12/03 08:05:57;;;;;;;17.88;5.63;;;;;;;;;;5027543;28;20119;-85
2023/12/03 08:08:23;;;;;;;21.23;7.78;;;;;;;;;;5028595;28;20149;-86
2023/12/03 08:10:49;;;;;;;21.50;7.43;;;;;;;;;;5024381;28;20041;-85
2023/12/03 08:13:15;;;;;;;21.20;6.90;;;;;;;;;;5007682;28;20392;-84
2023/12/03 08:15:41;;;;;;;18.55;6.18;;;;;;;;;;5027231;28;20060;-85
2023/12/03 08:18:07;;;;;;;20.33;7.97;;;;;;;;;;5026774;28;20116;-84
2023/12/03 08:20:33;;;;;;;21.95;6.97;;;;;;;;;;5027510;28;20071;-84
2023/12/03 08:22:59;;;;;;;17.85;6.72;;;;;;;;;;5025496;28;20036;-84
2023/12/03 08:25:25;;;;;;;13.55;4.72;;;;;;;;;;5010340;28;20053;-84
2023/12/03 08:27:51;;;;;;;20.20;7.63;;;;;;;;;;5009883;28;20038;-84
2023/12/03 08:30:17;;;;;;;15.02;5.72;;;;;;;;;;5009640;28;20514;-85
2023/12/03 08:32:43;;;;;;;14.35;5.43;;;;;;;;;;5008285;28;20103;-84
2023/12/03 08:35:09;;;;;;;16.45;5.90;;;;;;;;;;5011663;28;20495;-85
2023/12/03 08:37:35;;;;;;;17.80;5.70;;;;;;;;;;5030621;28;20052;-85
2023/12/03 08:40:01;;;;;;;15.02;5.90;;;;;;;;;;5012103;28;20033;-85
2023/12/03 08:42:27;;;;;;;16.13;6.22;;;;;;;;;;5009412;28;20346;-84
2023/12/03 08:44:53;;;;;;;16.27;6.15;;;;;;;;;;5009497;28;20419;-85
2023/12/03 08:47:19;;;;;;;18.60;6.20;;;;;;;;;;5022566;28;20060;-85
2023/12/03 08:49:45;;;;;;;15.73;7.03;;;;;;;;;;5024906;28;20546;-85
2023/12/03 08:52:12;;;;;;;20.88;8.35;;;;;;;;;;5024144;28;20047;-89
2023/12/03 08:54:38;;;;;;;16.70;6.43;;;;;;;;;;5024687;28;20037;-88
2023/12/03 08:57:04;;;;;;;20.10;7.82;;;;;;;;;;5008652;28;20044;-86
2023/12/03 08:59:30;;;;;;;22.50;8.73;;;;;;;;;;5026718;28;20045;-87
2023/12/03 09:01:57;;;;;;;21.30;8.95;;;;;;;;;;5023710;28;20033;-87
2023/12/03 09:04:23;;;;;;;20.17;7.75;;;;;;;;;;5025312;28;20271;-87
2023/12/03 09:06:49;;;;;;;21.75;8.20;;;;;;;;;;5010802;28;20037;-86
2023/12/03 09:09:15;;;;;;;29.88;10.70;;;;;;;;;;5006458;28;20045;-86
2023/12/03 09:11:43;;;;;;;20.73;7.97;;;;;;;;;;5023381;28;20056;-88
2023/12/03 09:14:09;;;;;;;23.95;9.85;;;;;;;;;;5005738;28;20103;-88
2023/12/03 09:16:35;;;;;;;22.02;10.35;;;;;;;;;;5006881;28;20076;-88
2023/12/03 09:19:02;;;;;;;26.50;10.57;;;;;;;;;;5026021;28;20060;-88
2023/12/03 09:21:28;;;;;;;31.75;11.43;;;;;;;;;;5010858;28;20069;-87
2023/12/03 09:23:54;;;;;;;25.70;10.00;;;;;;;;;;5040741;28;20073;-88
2023/12/03 09:26:20;;;;;;;34.55;14.00;;;;;;;;;;5033940;28;20073;-88
2023/12/03 09:28:46;;;;;;;23.17;10.18;;;;;;;;;;5008295;28;20084;-88
2023/12/03 09:31:12;;;;;;;23.30;8.77;;;;;;;;;;5022430;28;20056;-88
2023/12/03 09:33:38;;;;;;;22.35;9.52;;;;;;;;;;5026021;28;20385;-88
2023/12/03 09:36:04;;;;;;;22.08;8.32;;;;;;;;;;5008354;28;20037;-88
2023/12/03 09:38:30;;;;;;;25.65;10.63;;;;;;;;;;5008223;28;20055;-88
2023/12/03 09:41:00;;;;;;;26.75;11.10;;;;;;;;;;5021334;28;20118;-88
2023/12/03 09:43:28;;;;;;;29.60;12.77;;;;;;;;;;5026538;28;20064;-88
2023/12/03 09:45:59;;;;;;;27.20;11.20;;;;;;;;;;5027455;28;20511;-88
2023/12/03 09:48:25;;;;;;;;;;;;;;;;;;5025792;28;20068;-88
2023/12/03 09:50:52;;;;;;;28.50;12.18;;;;;;;;;;5029661;28;19927;-88
2023/12/03 09:53:19;;;;;;;28.95;13.27;;;;;;;;;;5029692;28;20073;-88
2023/12/03 09:55:45;;;;;;;21.13;8.55;;;;;;;;;;5029720;28;20510;-88
2023/12/03 09:58:15;;;;;;;24.27;11.30;;;;;;;;;;5027814;28;20082;-88
2023/12/03 10:00:41;;;;;;;27.95;13.35;;;;;;;;;;5028311;28;20472;-88
2023/12/03 10:03:08;;;;;;;30.50;14.18;;;;;;;;;;5021736;28;20037;-88
2023/12/03 10:05:34;;;;;;;29.25;12.98;;;;;;;;;;5011969;28;20033;-88
2023/12/03 10:08:00;;;;;;;29.73;13.90;;;;;;;;;;5029350;28;20038;-88
2023/12/03 10:10:31;;;;;;;26.88;14.32;;;;;;;;;;5011619;28;20052;-88
2023/12/03 10:12:58;;;;;;;28.77;12.38;;;;;;;;;;5032711;28;20053;-88
2023/12/03 10:15:25;;;;;;;35.35;15.75;;;;;;;;;;5005909;28;20044;-87
2023/12/03 10:17:51;;;;;;;20.13;10.05;;;;;;;;;;5024521;28;20041;-88
2023/12/03 10:20:17;;;;;;;26.98;11.40;;;;;;;;;;5026814;28;20041;-88
2023/12/03 10:22:43;;;;;;;35.25;15.15;;;;;;;;;;5023936;28;20045;-88
2023/12/03 10:25:09;;;;;;;23.42;14.13;;;;;;;;;;5017367;28;20052;-88
2023/12/03 10:27:35;;;;;;;31.90;14.85;;;;;;;;;;5010269;28;20041;-87
2023/12/03 10:30:02;;;;;;;30.25;14.13;;;;;;;;;;5009516;28;20044;-88
2023/12/03 10:32:28;;;;;;;25.08;12.13;;;;;;;;;;5029241;28;20542;-86
2023/12/03 10:34:56;;;;;;;19.42;10.38;;;;;;;;;;5027464;28;20120;-86
2023/12/03 10:37:22;;;;;;;24.90;12.00;;;;;;;;;;5028985;28;20057;-86
2023/12/03 10:39:48;;;;;;;25.70;12.57;;;;;;;;;;5013335;28;20072;-86
2023/12/03 10:42:14;;;;;;;31.77;14.38;;;;;;;;;;5011424;28;20041;-87
2023/12/03 10:44:40;;;;;;;24.77;13.88;;;;;;;;;;5023798;28;20068;-87
2023/12/03 10:47:07;;;;;;;21.52;11.02;;;;;;;;;;5013674;28;20102;-86
2023/12/03 10:49:34;;;;;;;20.15;8.50;;;;;;;;;;5010054;28;20555;-86
2023/12/03 10:52:00;;;;;;;25.88;12.80;;;;;;;;;;5012331;28;20045;-85
2023/12/03 10:54:26;;;;;;;23.63;11.13;;;;;;;;;;5027672;28;20041;-86
2023/12/03 10:56:54;;;;;;;29.35;13.68;;;;;;;;;;5009919;28;20038;-86
2023/12/03 10:59:27;;;;;;;22.80;10.90;;;;;;;;;;5028875;28;20037;-85
2023/12/03 11:01:55;;;;;;;30.42;13.82;;;;;;;;;;5031346;28;20045;-86
2023/12/03 11:04:38;;;;;;;28.40;14.35;;;;;;;;;;5017512;28;20107;-86
2023/12/03 11:07:06;;;;;;;27.30;12.65;;;;;;;;;;5009872;28;20447;-85
2023/12/03 11:09:32;;;;;;;26.27;11.95;;;;;;;;;;5022822;28;20045;-86
2023/12/03 11:11:58;;;;;;;22.17;12.02;;;;;;;;;;5025483;28;20059;-86
2023/12/03 11:14:24;;;;;;;26.83;12.75;;;;;;;;;;5027265;28;20496;-85
2023/12/03 11:16:53;;;;;;;24.02;12.38;;;;;;;;;;5009175;28;20036;-86
2023/12/03 11:19:21;;;;;;;23.35;11.48;;;;;;;;;;5026709;28;20047;-86
2023/12/03 11:21:56;;;;;;;21.80;11.02;;;;;;;;;;5025415;28;20380;-88
2023/12/03 11:24:28;;;;;;;25.67;12.57;;;;;;;;;;5031463;28;20044;-86
2023/12/03 11:26:57;;;;;;;20.70;10.80;;;;;;;;;;5026354;28;20033;-86
2023/12/03 11:29:43;;;;;;;19.67;10.02;;;;;;;;;;5027868;28;20053;-86
2023/12/03 11:32:09;;;;;;;19.85;9.15;;;;;;;;;;5010496;28;20408;-85
2023/12/03 11:34:35;;;;;;;19.05;10.00;;;;;;;;;;5010343;28;20041;-86
2023/12/03 11:37:01;;;;;;;23.55;11.70;;;;;;;;;;5010588;28;20045;-86
2023/12/03 11:39:28;;;;;;;21.55;10.10;;;;;;;;;;5008165;28;20103;-86
2023/12/03 11:42:01;;;;;;;19.63;9.25;;;;;;;;;;5025955;28;20426;-86
2023/12/03 11:44:27;;;;;;;20.63;11.23;;;;;;;;;;5025041;28;20048;-86
2023/12/03 11:47:03;;;;;;;20.00;9.27;;;;;;;;;;5004389;28;20041;-86
2023/12/03 11:49:29;;;;;;;18.75;9.35;;;;;;;;;;5024665;28;20064;-88
2023/12/03 11:51:55;;;;;;;22.00;9.15;;;;;;;;;;5028698;28;20535;-86
2023/12/03 11:54:25;;;;;;;26.95;12.07;;;;;;;;;;5009632;28;20045;-86
2023/12/03 11:56:53;;;;;;;15.45;8.63;;;;;;;;;;5012266;28;20037;-86
2023/12/03 11:59:19;;;;;;;23.88;10.15;;;;;;;;;;5024896;28;20045;-88
2023/12/03 12:01:45;;;;;;;19.52;10.57;;;;;;;;;;5030979;28;20033;-87
2023/12/03 12:04:23;;;;;;;24.80;11.57;;;;;;;;;;5006429;28;20033;-85
2023/12/03 12:06:53;;;;;;;32.50;14.38;;;;;;;;;;5025073;28;20049;-86
2023/12/03 12:09:23;;;;;;;30.98;13.77;;;;;;;;;;5028693;28;20053;-86
2023/12/03 12:11:49;;;;;;;31.58;13.82;;;;;;;;;;5023870;28;20048;-87
2023/12/03 12:14:17;;;;;;;33.00;13.27;;;;;;;;;;5010057;28;20044;-87
2023/12/03 12:16:43;;;;;;;32.25;12.77;;;;;;;;;;5031133;28;20408;-87
2023/12/03 12:19:09;;;;;;;27.50;13.77;;;;;;;;;;5008945;28;20042;-87
2023/12/03 12:21:35;;;;;;;29.75;13.98;;;;;;;;;;5026113;28;20033;-87
2023/12/03 12:24:01;;;;;;;30.65;13.77;;;;;;;;;;5027147;28;20492;-86
2023/12/03 12:26:27;;;;;;;24.52;12.18;;;;;;;;;;5025638;28;20040;-87
2023/12/03 12:28:53;;;;;;;30.85;12.82;;;;;;;;;;5025209;28;20534;-87
2023/12/03 12:31:24;;;;;;;26.42;12.38;;;;;;;;;;5009872;28;20049;-87
2023/12/03 12:33:50;;;;;;;34.08;14.40;;;;;;;;;;5025974;28;20048;-87
2023/12/03 12:36:16;;;;;;;31.17;14.18;;;;;;;;;;5005283;28;20477;-87
2023/12/03 12:38:42;;;;;;;37.00;15.10;;;;;;;;;;5008695;28;20039;-87
2023/12/03 12:41:13;;;;;;;29.67;14.02;;;;;;;;;;5028697;28;20037;-87
2023/12/03 12:43:53;;;;;;;28.63;14.18;;;;;;;;;;5008211;28;20036;-87
2023/12/03 12:46:19;;;;;;;32.97;13.77;;;;;;;;;;5012438;28;20051;-87
2023/12/03 12:48:45;;;;;;;25.70;12.85;;;;;;;;;;5028489;28;20528;-88
2023/12/03 12:51:24;;;;;;;27.02;9.95;;;;;;;;;;5032148;28;20859;-87
2023/12/03 12:53:58;;;;;;;26.77;11.98;;;;;;;;;;5009322;28;20037;-86
2023/12/03 12:56:24;;;;;;;27.17;12.32;;;;;;;;;;5010430;28;20071;-86
2023/12/03 12:58:51;;;;;;;24.95;11.23;;;;;;;;;;5009910;28;20036;-86
2023/12/03 13:01:17;;;;;;;29.05;11.70;;;;;;;;;;5010156;28;20037;-88
2023/12/03 13:03:43;;;;;;;19.35;9.63;;;;;;;;;;5014209;28;20048;-87
2023/12/03 13:06:10;;;;;;;26.92;10.73;;;;;;;;;;5012568;28;20036;-87
2023/12/03 13:08:36;;;;;;;25.45;10.25;;;;;;;;;;5008619;28;20045;-87
2023/12/03 13:11:02;;;;;;;20.77;9.38;;;;;;;;;;5012066;28;20346;-88
2023/12/03 13:13:28;;;;;;;22.50;10.65;;;;;;;;;;5009652;28;20044;-90
2023/12/03 13:15:54;;;;;;;19.88;9.63;;;;;;;;;;5010013;28;20496;-87
2023/12/03 13:18:20;;;;;;;22.90;9.52;;;;;;;;;;5029115;28;20076;-87
2023/12/03 13:20:46;;;;;;;17.83;9.02;;;;;;;;;;5026468;28;20049;-88
2023/12/03 13:23:12;;;;;;;18.40;8.73;;;;;;;;;;5027588;28;20099;-88
2023/12/03 13:25:38;;;;;;;14.90;8.75;;;;;;;;;;5012587;28;20546;-88
2023/12/03 13:28:04;;;;;;;19.48;9.23;;;;;;;;;;5012650;28;20041;-87
2023/12/03 13:30:30;;;;;;;15.73;7.50;;;;;;;;;;5022491;28;20038;-87
2023/12/03 13:32:58;;;;;;;15.98;7.55;;;;;;;;;;5019609;28;20045;-85
2023/12/03 13:35:24;;;;;;;18.20;9.90;;;;;;;;;;5023950;28;20110;-86
2023/12/03 13:37:50;;;;;;;20.38;7.47;;;;;;;;;;5027697;28;20484;-86
2023/12/03 13:40:16;;;;;;;19.75;8.52;;;;;;;;;;5010114;28;20090;-86
2023/12/03 13:42:50;;;;;;;20.17;9.40;;;;;;;;;;5013375;28;20094;-86
2023/12/03 13:45:16;;;;;;;16.92;8.27;;;;;;;;;;5022774;28;20041;-86
2023/12/03 13:47:42;;;;;;;15.43;8.00;;;;;;;;;;5010933;28;20208;-86
2023/12/03 13:50:08;;;;;;;14.57;7.57;;;;;;;;;;5028642;28;20128;-86
2023/12/03 13:52:34;;;;;;;18.08;7.70;;;;;;;;;;5010175;28;20045;-86
2023/12/03 13:55:01;;;;;;;15.95;8.60;;;;;;;;;;5012591;28;20838;-86
2023/12/03 13:57:27;;;;;;;16.17;7.43;;;;;;;;;;5002804;28;20056;-86
2023/12/03 13:59:53;;;;;;;16.23;7.22;;;;;;;;;;5008841;28;20392;-86
2023/12/03 14:02:19;;;;;;;16.95;8.40;;;;;;;;;;5010800;28;20450;-85
2023/12/03 14:04:45;;;;;;;19.23;8.10;;;;;;;;;;5029124;28;20044;-85
2023/12/03 14:07:12;;;;;;;17.17;7.60;;;;;;;;;;5015362;28;20048;-86
2023/12/03 14:09:38;;;;;;;17.08;7.80;;;;;;;;;;5028045;28;20067;-86
2023/12/03 14:12:04;;;;;;;15.93;7.47;;;;;;;;;;5012541;28;20114;-86
2023/12/03 14:14:31;;;;;;;19.48;9.45;;;;;;;;;;5014585;28;20552;-86
2023/12/03 14:16:58;;;;;;;15.35;7.70;;;;;;;;;;5026936;28;20045;-86
2023/12/03 14:19:24;;;;;;;17.35;7.68;;;;;;;;;;5015637;28;20469;-86
2023/12/03 14:21:51;;;;;;;18.88;8.13;;;;;;;;;;5029622;28;20491;-86